sensor_id;sensor_type;location;lat;lon;timestamp;pressure;altitude;pressure_sealevel;temperature;humidity
42705;BME280;28342;42.594;23.414;2024-03-17T00:00:21;94715.66;;;7.26;79.54
42705;BME280;28342;42.594;23.414;2024-03-17T00:02:47;94729.63;;;7.27;79.37
42705;BME280;28342;42.594;23.414;2024-03-17T00:05:13;94729.34;;;7.28;80.01
42705;BME280;28342;42.594;23.414;2024-03-17T00:07:39;94718.41;;;7.16;80.18
42705;BME280;28342;42.594;23.414;2024-03-17T00:10:05;94725.50;;;7.21;80.32
42705;BME280;28342;42.594;23.414;2024-03-17T00:12:32;94722.56;;;7.22;80.50
42705;BME280;28342;42.594;23.414;2024-03-17T00:14:58;94724.16;;;7.23;80.76
42705;BME280;28342;42.594;23.414;2024-03-17T00:17:23;94720.75;;;7.17;80.71
42705;BME280;28342;42.594;23.414;2024-03-17T00:19:49;94710.34;;;7.02;81.12
42705;BME280;28342;42.594;23.414;2024-03-17T00:22:14;94720.81;;;7.12;80.61
42705;BME280;28342;42.594;23.414;2024-03-17T00:24:40;94711.09;;;7.08;80.52
42705;BME280;28342;42.594;23.414;2024-03-17T00:27:07;94717.38;;;7.12;80.07
42705;BME280;28342;42.594;23.414;2024-03-17T00:29:33;94719.75;;;7.13;79.91
42705;BME280;28342;42.594;23.414;2024-03-17T00:31:58;94707.72;;;7.02;79.91
42705;BME280;28342;42.594;23.414;2024-03-17T00:34:24;94715.13;;;7.00;80.22
42705;BME280;28342;42.594;23.414;2024-03-17T00:36:49;94717.34;;;6.88;80.59
42705;BME280;28342;42.594;23.414;2024-03-17T00:39:16;94722.03;;;6.67;81.51
42705;BME280;28342;42.594;23.414;2024-03-17T00:41:42;94718.94;;;6.55;81.92
42705;BME280;28342;42.594;23.414;2024-03-17T00:44:07;94723.66;;;6.58;81.68
42705;BME280;28342;42.594;23.414;2024-03-17T00:46:33;94699.16;;;6.28;82.52
42705;BME280;28342;42.594;23.414;2024-03-17T00:48:59;94719.34;;;6.38;82.87
42705;BME280;28342;42.594;23.414;2024-03-17T00:51:28;94704.88;;;6.36;82.02
42705;BME280;28342;42.594;23.414;2024-03-17T00:53:53;94717.16;;;6.50;81.77
42705;BME280;28342;42.594;23.414;2024-03-17T00:56:18;94716.94;;;6.47;81.83
42705;BME280;28342;42.594;23.414;2024-03-17T00:58:44;94719.56;;;6.47;81.63
42705;BME280;28342;42.594;23.414;2024-03-17T01:01:10;94710.31;;;6.15;82.59
42705;BME280;28342;42.594;23.414;2024-03-17T01:03:36;94717.94;;;6.17;82.58
42705;BME280;28342;42.594;23.414;2024-03-17T01:06:05;94702.91;;;6.17;82.60
42705;BME280;28342;42.594;23.414;2024-03-17T01:08:30;94723.09;;;6.27;82.38
42705;BME280;28342;42.594;23.414;2024-03-17T01:10:56;94706.06;;;6.19;82.07
42705;BME280;28342;42.594;23.414;2024-03-17T01:13:21;94717.59;;;6.23;81.87
42705;BME280;28342;42.594;23.414;2024-03-17T01:15:51;94719.44;;;6.28;81.71
42705;BME280;28342;42.594;23.414;2024-03-17T01:18:17;94717.75;;;6.03;82.59
42705;BME280;28342;42.594;23.414;2024-03-17T01:20:42;94709.63;;;5.94;82.73
42705;BME280;28342;42.594;23.414;2024-03-17T01:23:08;94706.69;;;6.01;82.41
42705;BME280;28342;42.594;23.414;2024-03-17T01:25:33;94723.47;;;6.10;82.44
42705;BME280;28342;42.594;23.414;2024-03-17T01:28:05;94707.78;;;5.95;82.55
42705;BME280;28342;42.594;23.414;2024-03-17T01:30:31;94706.47;;;5.92;82.63
42705;BME280;28342;42.594;23.414;2024-03-17T01:32:58;94721.44;;;6.02;82.28
42705;BME280;28342;42.594;23.414;2024-03-17T01:35:25;94722.78;;;5.99;82.43
42705;BME280;28342;42.594;23.414;2024-03-17T01:37:50;94732.72;;;5.53;84.54
42705;BME280;28342;42.594;23.414;2024-03-17T01:40:16;94726.84;;;5.66;84.25
42705;BME280;28342;42.594;23.414;2024-03-17T01:42:41;94714.63;;;5.36;85.47
42705;BME280;28342;42.594;23.414;2024-03-17T01:45:29;94697.78;;;5.32;85.47
42705;BME280;28342;42.594;23.414;2024-03-17T01:47:55;94703.28;;;5.36;85.11
42705;BME280;28342;42.594;23.414;2024-03-17T01:50:37;94706.00;;;5.16;86.12
42705;BME280;28342;42.594;23.414;2024-03-17T01:53:05;94717.84;;;5.08;86.98
42705;BME280;28342;42.594;23.414;2024-03-17T01:55:37;94708.16;;;4.88;87.58
42705;BME280;28342;42.594;23.414;2024-03-17T01:58:04;94714.47;;;4.87;88.70
42705;BME280;28342;42.594;23.414;2024-03-17T02:00:33;94718.66;;;4.88;88.73
42705;BME280;28342;42.594;23.414;2024-03-17T02:03:04;94706.06;;;4.90;88.29
42705;BME280;28342;42.594;23.414;2024-03-17T02:05:29;94705.50;;;4.98;88.10
42705;BME280;28342;42.594;23.414;2024-03-17T02:07:55;94707.63;;;5.06;88.00
42705;BME280;28342;42.594;23.414;2024-03-17T02:10:21;94727.03;;;5.16;88.12
42705;BME280;28342;42.594;23.414;2024-03-17T02:12:47;94706.00;;;5.21;87.74
42705;BME280;28342;42.594;23.414;2024-03-17T02:15:13;94713.28;;;5.34;87.29
42705;BME280;28342;42.594;23.414;2024-03-17T02:17:39;94715.41;;;5.37;86.93
42705;BME280;28342;42.594;23.414;2024-03-17T02:20:05;94709.06;;;5.43;86.12
42705;BME280;28342;42.594;23.414;2024-03-17T02:22:36;94720.38;;;5.44;86.23
42705;BME280;28342;42.594;23.414;2024-03-17T02:25:02;94725.38;;;5.45;86.12
42705;BME280;28342;42.594;23.414;2024-03-17T02:27:28;94723.28;;;5.42;85.73
42705;BME280;28342;42.594;23.414;2024-03-17T02:29:54;94710.16;;;5.37;85.73
42705;BME280;28342;42.594;23.414;2024-03-17T02:32:20;94720.16;;;5.30;85.62
42705;BME280;28342;42.594;23.414;2024-03-17T02:34:47;94712.81;;;5.27;85.68
42705;BME280;28342;42.594;23.414;2024-03-17T02:37:13;94723.81;;;5.34;85.26
42705;BME280;28342;42.594;23.414;2024-03-17T02:39:38;94723.31;;;5.32;85.78
42705;BME280;28342;42.594;23.414;2024-03-17T02:42:08;94704.19;;;5.06;86.66
42705;BME280;28342;42.594;23.414;2024-03-17T02:44:35;94728.59;;;5.17;86.57
42705;BME280;28342;42.594;23.414;2024-03-17T02:47:02;94710.25;;;5.06;86.74
42705;BME280;28342;42.594;23.414;2024-03-17T02:49:29;94711.03;;;4.97;87.80
42705;BME280;28342;42.594;23.414;2024-03-17T02:52:02;94707.59;;;5.01;88.70
42705;BME280;28342;42.594;23.414;2024-03-17T02:54:28;94704.22;;;4.96;88.84
42705;BME280;28342;42.594;23.414;2024-03-17T02:56:53;94727.28;;;5.14;88.37
42705;BME280;28342;42.594;23.414;2024-03-17T02:59:19;94715.19;;;5.23;87.52
42705;BME280;28342;42.594;23.414;2024-03-17T03:01:44;94721.72;;;5.31;87.30
42705;BME280;28342;42.594;23.414;2024-03-17T03:04:10;94720.41;;;5.33;86.37
42705;BME280;28342;42.594;23.414;2024-03-17T03:06:36;94709.66;;;5.25;86.28
42705;BME280;28342;42.594;23.414;2024-03-17T03:09:03;94714.13;;;5.19;87.06
42705;BME280;28342;42.594;23.414;2024-03-17T03:11:30;94714.91;;;5.20;85.89
42705;BME280;28342;42.594;23.414;2024-03-17T03:13:56;94725.41;;;5.30;85.53
42705;BME280;28342;42.594;23.414;2024-03-17T03:16:21;94722.50;;;5.31;85.67
42705;BME280;28342;42.594;23.414;2024-03-17T03:18:47;94724.91;;;5.28;85.80
42705;BME280;28342;42.594;23.414;2024-03-17T03:21:12;94707.03;;;5.20;85.35
42705;BME280;28342;42.594;23.414;2024-03-17T03:23:38;94715.44;;;5.27;84.80
42705;BME280;28342;42.594;23.414;2024-03-17T03:26:04;94710.72;;;5.24;84.63
42705;BME280;28342;42.594;23.414;2024-03-17T03:28:33;94720.47;;;5.13;85.85
42705;BME280;28342;42.594;23.414;2024-03-17T03:31:01;94709.69;;;5.09;85.94
42705;BME280;28342;42.594;23.414;2024-03-17T03:33:27;94719.97;;;5.06;86.63
42705;BME280;28342;42.594;23.414;2024-03-17T03:35:53;94717.34;;;5.01;86.82
42705;BME280;28342;42.594;23.414;2024-03-17T03:38:20;94709.22;;;4.92;87.56
42705;BME280;28342;42.594;23.414;2024-03-17T03:40:47;94712.91;;;4.91;87.86
42705;BME280;28342;42.594;23.414;2024-03-17T03:43:13;94730.22;;;5.02;88.00
42705;BME280;28342;42.594;23.414;2024-03-17T03:45:39;94722.34;;;5.07;87.07
42705;BME280;28342;42.594;23.414;2024-03-17T03:48:05;94705.53;;;4.93;86.87
42705;BME280;28342;42.594;23.414;2024-03-17T03:50:31;94727.06;;;5.00;87.17
42705;BME280;28342;42.594;23.414;2024-03-17T03:52:57;94727.06;;;5.00;86.95
42705;BME280;28342;42.594;23.414;2024-03-17T03:55:23;94722.88;;;4.99;86.55
42705;BME280;28342;42.594;23.414;2024-03-17T03:57:49;94736.00;;;5.04;86.23
42705;BME280;28342;42.594;23.414;2024-03-17T04:00:18;94738.09;;;5.07;86.14
42705;BME280;28342;42.594;23.414;2024-03-17T04:02:50;94736.00;;;5.09;86.12
42705;BME280;28342;42.594;23.414;2024-03-17T04:05:17;94744.41;;;5.06;85.55
42705;BME280;28342;42.594;23.414;2024-03-17T04:07:42;94729.72;;;4.95;86.07
42705;BME280;28342;42.594;23.414;2024-03-17T04:10:09;94752.03;;;5.03;86.33
42705;BME280;28342;42.594;23.414;2024-03-17T04:12:35;94751.78;;;4.99;86.54
42705;BME280;28342;42.594;23.414;2024-03-17T04:15:00;94747.59;;;4.83;87.82
42705;BME280;28342;42.594;23.414;2024-03-17T04:17:26;94732.91;;;4.77;88.12
42705;BME280;28342;42.594;23.414;2024-03-17T04:19:53;94754.69;;;4.88;88.31
42705;BME280;28342;42.594;23.414;2024-03-17T04:22:20;94757.31;;;4.93;87.61
42705;BME280;28342;42.594;23.414;2024-03-17T04:24:47;94755.75;;;4.92;87.58
42705;BME280;28342;42.594;23.414;2024-03-17T04:27:14;94768.34;;;4.90;87.79
42705;BME280;28342;42.594;23.414;2024-03-17T04:29:39;94758.66;;;4.80;88.43
42705;BME280;28342;42.594;23.414;2024-03-17T04:32:06;94761.78;;;4.82;88.16
42705;BME280;28342;42.594;23.414;2024-03-17T04:34:32;94777.56;;;4.92;87.93
42705;BME280;28342;42.594;23.414;2024-03-17T04:36:58;94758.63;;;4.85;87.34
42705;BME280;28342;42.594;23.414;2024-03-17T04:39:24;94768.63;;;4.83;87.45
42705;BME280;28342;42.594;23.414;2024-03-17T04:41:50;94783.06;;;4.96;87.48
42705;BME280;28342;42.594;23.414;2024-03-17T04:44:16;94770.97;;;4.85;87.39
42705;BME280;28342;42.594;23.414;2024-03-17T04:46:42;94786.50;;;4.91;87.21
42705;BME280;28342;42.594;23.414;2024-03-17T04:49:07;94776.00;;;4.91;86.79
42705;BME280;28342;42.594;23.414;2024-03-17T04:51:34;94778.09;;;4.79;87.42
42705;BME280;28342;42.594;23.414;2024-03-17T04:54:00;94794.38;;;4.86;87.33
42705;BME280;28342;42.594;23.414;2024-03-17T04:56:25;94796.72;;;4.88;87.06
42705;BME280;28342;42.594;23.414;2024-03-17T04:58:51;94785.97;;;4.74;87.16
42705;BME280;28342;42.594;23.414;2024-03-17T05:01:16;94813.31;;;4.78;87.29
42705;BME280;28342;42.594;23.414;2024-03-17T05:03:42;94814.34;;;4.72;87.33
42705;BME280;28342;42.594;23.414;2024-03-17T05:06:07;94808.28;;;4.71;87.27
42705;BME280;28342;42.594;23.414;2024-03-17T05:08:34;94808.03;;;4.73;87.33
42705;BME280;28342;42.594;23.414;2024-03-17T05:11:04;94815.91;;;4.73;87.80
42705;BME280;28342;42.594;23.414;2024-03-17T05:13:34;94804.88;;;4.71;87.43
42705;BME280;28342;42.594;23.414;2024-03-17T05:16:00;94812.25;;;4.74;87.71
42705;BME280;28342;42.594;23.414;2024-03-17T05:18:25;94807.53;;;4.66;88.12
42705;BME280;28342;42.594;23.414;2024-03-17T05:21:02;94815.16;;;4.62;88.47
42705;BME280;28342;42.594;23.414;2024-03-17T05:23:29;94825.38;;;4.74;88.76
42705;BME280;28342;42.594;23.414;2024-03-17T05:25:56;94818.56;;;4.68;88.65
42705;BME280;28342;42.594;23.414;2024-03-17T05:28:23;94828.53;;;4.71;88.82
42705;BME280;28342;42.594;23.414;2024-03-17T05:30:49;94826.44;;;4.73;88.70
42705;BME280;28342;42.594;23.414;2024-03-17T05:33:16;94810.13;;;4.71;89.09
42705;BME280;28342;42.594;23.414;2024-03-17T05:35:49;94824.84;;;4.72;88.71
42705;BME280;28342;42.594;23.414;2024-03-17T05:38:14;94820.66;;;4.76;88.99
42705;BME280;28342;42.594;23.414;2024-03-17T05:40:39;94829.06;;;4.78;89.36
42705;BME280;28342;42.594;23.414;2024-03-17T05:43:06;94830.63;;;4.69;90.27
42705;BME280;28342;42.594;23.414;2024-03-17T05:45:32;94827.50;;;4.87;90.12
42705;BME280;28342;42.594;23.414;2024-03-17T05:47:57;94822.25;;;4.92;89.98
42705;BME280;28342;42.594;23.414;2024-03-17T05:50:23;94824.84;;;5.02;89.83
42705;BME280;28342;42.594;23.414;2024-03-17T05:52:48;94813.28;;;4.98;89.64
42705;BME280;28342;42.594;23.414;2024-03-17T05:55:14;94805.41;;;5.08;88.64
42705;BME280;28342;42.594;23.414;2024-03-17T05:57:39;94805.38;;;5.19;88.53
42705;BME280;28342;42.594;23.414;2024-03-17T06:00:06;94815.91;;;5.24;88.72
42705;BME280;28342;42.594;23.414;2024-03-17T06:02:32;94819.88;;;5.21;88.40
42705;BME280;28342;42.594;23.414;2024-03-17T06:04:58;94829.03;;;5.29;89.12
42705;BME280;28342;42.594;23.414;2024-03-17T06:07:29;94828.00;;;5.25;89.54
42705;BME280;28342;42.594;23.414;2024-03-17T06:09:55;94815.34;;;5.32;89.22
42705;BME280;28342;42.594;23.414;2024-03-17T06:12:21;94826.94;;;5.31;89.30
42705;BME280;28342;42.594;23.414;2024-03-17T06:14:46;94824.81;;;5.53;90.06
42705;BME280;28342;42.594;23.414;2024-03-17T06:17:12;94825.59;;;5.54;90.04
42705;BME280;28342;42.594;23.414;2024-03-17T06:19:37;94816.91;;;5.53;90.19
42705;BME280;28342;42.594;23.414;2024-03-17T06:22:03;94826.88;;;5.61;90.28
42705;BME280;28342;42.594;23.414;2024-03-17T06:24:30;94823.69;;;5.69;89.60
42705;BME280;28342;42.594;23.414;2024-03-17T06:26:56;94830.53;;;5.70;89.28
42705;BME280;28342;42.594;23.414;2024-03-17T06:29:21;94843.13;;;5.94;88.88
42705;BME280;28342;42.594;23.414;2024-03-17T06:31:46;94835.72;;;6.01;87.96
42705;BME280;28342;42.594;23.414;2024-03-17T06:34:12;94838.81;;;6.18;88.39
42705;BME280;28342;42.594;23.414;2024-03-17T06:36:40;94828.56;;;6.17;88.30
42705;BME280;28342;42.594;23.414;2024-03-17T06:39:05;94842.44;;;6.33;86.95
42705;BME280;28342;42.594;23.414;2024-03-17T06:41:31;94848.72;;;6.37;87.35
42705;BME280;28342;42.594;23.414;2024-03-17T06:43:56;94841.84;;;6.46;86.47
42705;BME280;28342;42.594;23.414;2024-03-17T06:46:21;94848.03;;;6.65;86.88
42705;BME280;28342;42.594;23.414;2024-03-17T06:48:47;94840.13;;;6.65;86.21
42705;BME280;28342;42.594;23.414;2024-03-17T06:51:12;94852.09;;;6.86;85.81
42705;BME280;28342;42.594;23.414;2024-03-17T06:53:38;94851.47;;;7.00;85.35
42705;BME280;28342;42.594;23.414;2024-03-17T06:56:03;94854.50;;;7.17;85.41
42705;BME280;28342;42.594;23.414;2024-03-17T06:58:31;94860.56;;;7.23;83.86
42705;BME280;28342;42.594;23.414;2024-03-17T07:00:58;94839.91;;;7.30;83.12
42705;BME280;28342;42.594;23.414;2024-03-17T07:03:30;94843.09;;;7.56;83.35
42705;BME280;28342;42.594;23.414;2024-03-17T07:05:58;94872.22;;;7.98;82.92
42705;BME280;28342;42.594;23.414;2024-03-17T07:08:24;94862.63;;;8.26;81.26
42705;BME280;28342;42.594;23.414;2024-03-17T07:11:03;94867.44;;;8.67;79.13
42705;BME280;28342;42.594;23.414;2024-03-17T07:13:34;94858.28;;;8.97;75.16
42705;BME280;28342;42.594;23.414;2024-03-17T07:16:00;94865.94;;;9.31;74.72
42705;BME280;28342;42.594;23.414;2024-03-17T07:18:27;94858.97;;;9.54;73.31
42705;BME280;28342;42.594;23.414;2024-03-17T07:20:56;94842.59;;;9.52;72.53
42705;BME280;28342;42.594;23.414;2024-03-17T07:23:22;94855.66;;;9.89;73.38
42705;BME280;28342;42.594;23.414;2024-03-17T07:25:58;94840.97;;;10.11;71.31
42705;BME280;28342;42.594;23.414;2024-03-17T07:28:24;94850.41;;;10.31;71.21
42705;BME280;28342;42.594;23.414;2024-03-17T07:30:54;94831.06;;;10.30;71.29
42705;BME280;28342;42.594;23.414;2024-03-17T07:33:22;94836.72;;;10.51;70.01
42705;BME280;28342;42.594;23.414;2024-03-17T07:35:54;94851.91;;;10.73;69.42
42705;BME280;28342;42.594;23.414;2024-03-17T07:38:22;94859.28;;;10.98;68.46
42705;BME280;28342;42.594;23.414;2024-03-17T07:41:02;94850.50;;;11.34;68.15
42705;BME280;28342;42.594;23.414;2024-03-17T07:43:29;94849.47;;;11.75;65.84
42705;BME280;28342;42.594;23.414;2024-03-17T07:46:12;94853.22;;;12.05;66.54
42705;BME280;28342;42.594;23.414;2024-03-17T07:48:40;94848.66;;;12.45;65.08
42705;BME280;28342;42.594;23.414;2024-03-17T07:51:16;94851.72;;;12.86;65.07
42705;BME280;28342;42.594;23.414;2024-03-17T07:53:45;94844.84;;;13.20;63.98
42705;BME280;28342;42.594;23.414;2024-03-17T07:56:13;94856.22;;;13.55;60.99
42705;BME280;28342;42.594;23.414;2024-03-17T07:58:41;94842.91;;;13.64;59.04
42705;BME280;28342;42.594;23.414;2024-03-17T08:01:12;94838.00;;;13.74;60.82
42705;BME280;28342;42.594;23.414;2024-03-17T08:03:39;94848.56;;;13.54;62.84
42705;BME280;28342;42.594;23.414;2024-03-17T08:06:06;94855.31;;;13.51;61.05
42705;BME280;28342;42.594;23.414;2024-03-17T08:08:33;94841.19;;;13.51;59.79
42705;BME280;28342;42.594;23.414;2024-03-17T08:10:58;94851.00;;;13.76;61.50
42705;BME280;28342;42.594;23.414;2024-03-17T08:13:24;94838.03;;;13.66;60.54
42705;BME280;28342;42.594;23.414;2024-03-17T08:15:58;94829.25;;;13.57;60.79
42705;BME280;28342;42.594;23.414;2024-03-17T08:18:24;94837.44;;;13.43;60.84
42705;BME280;28342;42.594;23.414;2024-03-17T08:20:50;94845.28;;;13.31;61.30
42705;BME280;28342;42.594;23.414;2024-03-17T08:23:16;94839.78;;;13.44;63.85
42705;BME280;28342;42.594;23.414;2024-03-17T08:25:41;94824.38;;;13.59;60.51
42705;BME280;28342;42.594;23.414;2024-03-17T08:28:07;94835.91;;;13.89;58.74
42705;BME280;28342;42.594;23.414;2024-03-17T08:30:32;94840.75;;;13.95;61.53
42705;BME280;28342;42.594;23.414;2024-03-17T08:32:58;94832.38;;;14.14;58.65
42705;BME280;28342;42.594;23.414;2024-03-17T08:35:23;94836.75;;;14.40;59.21
42705;BME280;28342;42.594;23.414;2024-03-17T08:37:49;94845.25;;;14.03;56.98
42705;BME280;28342;42.594;23.414;2024-03-17T08:40:17;94835.06;;;14.35;59.18
42705;BME280;28342;42.594;23.414;2024-03-17T08:42:42;94829.56;;;14.40;56.85
42705;BME280;28342;42.594;23.414;2024-03-17T08:45:08;94820.91;;;14.43;58.20
42705;BME280;28342;42.594;23.414;2024-03-17T08:47:35;94816.38;;;14.44;58.28
42705;BME280;28342;42.594;23.414;2024-03-17T08:50:00;94838.13;;;14.54;56.26
42705;BME280;28342;42.594;23.414;2024-03-17T08:52:29;94832.41;;;14.64;55.34
42705;BME280;28342;42.594;23.414;2024-03-17T08:54:57;94814.19;;;14.67;55.01
42705;BME280;28342;42.594;23.414;2024-03-17T08:57:22;94830.75;;;14.22;54.57
42705;BME280;28342;42.594;23.414;2024-03-17T08:59:48;94811.25;;;14.30;54.95
42705;BME280;28342;42.594;23.414;2024-03-17T09:02:14;94825.31;;;14.39;56.97
42705;BME280;28342;42.594;23.414;2024-03-17T09:04:41;94813.84;;;14.47;56.77
42705;BME280;28342;42.594;23.414;2024-03-17T09:07:06;94817.50;;;14.63;57.62
42705;BME280;28342;42.594;23.414;2024-03-17T09:09:32;94814.13;;;14.96;56.08
42705;BME280;28342;42.594;23.414;2024-03-17T09:11:57;94812.25;;;14.76;54.84
42705;BME280;28342;42.594;23.414;2024-03-17T09:14:22;94811.56;;;15.20;57.33
42705;BME280;28342;42.594;23.414;2024-03-17T09:16:48;94814.13;;;15.50;54.87
42705;BME280;28342;42.594;23.414;2024-03-17T09:19:14;94804.66;;;15.52;55.86
42705;BME280;28342;42.594;23.414;2024-03-17T09:21:40;94804.41;;;15.78;54.88
42705;BME280;28342;42.594;23.414;2024-03-17T09:24:06;94808.91;;;16.11;51.55
42705;BME280;28342;42.594;23.414;2024-03-17T09:26:35;94798.53;;;16.34;50.19
42705;BME280;28342;42.594;23.414;2024-03-17T09:29:01;94795.25;;;16.77;51.29
42705;BME280;28342;42.594;23.414;2024-03-17T09:31:27;94818.00;;;17.23;50.62
42705;BME280;28342;42.594;23.414;2024-03-17T09:33:52;94793.22;;;17.42;50.81
42705;BME280;28342;42.594;23.414;2024-03-17T09:36:18;94794.38;;;17.57;47.67
42705;BME280;28342;42.594;23.414;2024-03-17T09:38:44;94793.94;;;17.83;47.23
42705;BME280;28342;42.594;23.414;2024-03-17T09:41:21;94796.53;;;18.11;44.92
42705;BME280;28342;42.594;23.414;2024-03-17T09:43:52;94797.66;;;18.10;46.02
42705;BME280;28342;42.594;23.414;2024-03-17T09:46:19;94788.53;;;17.67;43.88
42705;BME280;28342;42.594;23.414;2024-03-17T09:48:44;94787.75;;;17.67;43.03
42705;BME280;28342;42.594;23.414;2024-03-17T09:51:18;94792.03;;;17.55;45.37
42705;BME280;28342;42.594;23.414;2024-03-17T09:53:43;94790.19;;;17.72;45.74
42705;BME280;28342;42.594;23.414;2024-03-17T09:56:13;94762.03;;;17.50;44.05
42705;BME280;28342;42.594;23.414;2024-03-17T09:58:50;94781.28;;;17.83;43.65
42705;BME280;28342;42.594;23.414;2024-03-17T10:01:16;94782.88;;;17.56;41.61
42705;BME280;28342;42.594;23.414;2024-03-17T10:03:47;94786.41;;;17.60;42.74
42705;BME280;28342;42.594;23.414;2024-03-17T10:06:23;94785.25;;;17.74;44.36
42705;BME280;28342;42.594;23.414;2024-03-17T10:08:50;94782.38;;;17.67;42.40
42705;BME280;28342;42.594;23.414;2024-03-17T10:11:18;94774.78;;;17.69;43.31
42705;BME280;28342;42.594;23.414;2024-03-17T10:13:45;94779.03;;;18.01;40.34
42705;BME280;28342;42.594;23.414;2024-03-17T10:16:24;94774.94;;;17.76;40.63
42705;BME280;28342;42.594;23.414;2024-03-17T10:18:51;94769.06;;;17.86;41.41
42705;BME280;28342;42.594;23.414;2024-03-17T10:21:26;94776.66;;;18.31;41.43
42705;BME280;28342;42.594;23.414;2024-03-17T10:24:12;94778.19;;;18.48;35.32
42705;BME280;28342;42.594;23.414;2024-03-17T10:26:40;94788.50;;;18.46;36.97
42705;BME280;28342;42.594;23.414;2024-03-17T10:31:51;94788.13;;;18.12;35.35
42705;BME280;28342;42.594;23.414;2024-03-17T10:34:17;94773.84;;;18.08;37.38
42705;BME280;28342;42.594;23.414;2024-03-17T10:36:47;94785.34;;;18.25;38.15
42705;BME280;28342;42.594;23.414;2024-03-17T10:39:26;94780.66;;;17.90;35.64
42705;BME280;28342;42.594;23.414;2024-03-17T10:42:03;94779.13;;;17.89;37.95
42705;BME280;28342;42.594;23.414;2024-03-17T10:44:29;94788.81;;;17.78;38.32
42705;BME280;28342;42.594;23.414;2024-03-17T10:46:56;94777.28;;;17.61;36.30
42705;BME280;28342;42.594;23.414;2024-03-17T10:49:30;94766.28;;;17.67;38.76
42705;BME280;28342;42.594;23.414;2024-03-17T10:52:04;94767.16;;;17.71;36.33
42705;BME280;28342;42.594;23.414;2024-03-17T10:54:30;94781.03;;;17.88;38.17
42705;BME280;28342;42.594;23.414;2024-03-17T10:59:46;94776.31;;;17.26;35.79
42705;BME280;28342;42.594;23.414;2024-03-17T11:02:23;94759.63;;;17.17;37.08
42705;BME280;28342;42.594;23.414;2024-03-17T11:04:53;94752.03;;;17.35;37.01
42705;BME280;28342;42.594;23.414;2024-03-17T11:07:20;94761.56;;;17.32;38.20
42705;BME280;28342;42.594;23.414;2024-03-17T11:09:47;94753.63;;;17.08;35.58
42705;BME280;28342;42.594;23.414;2024-03-17T11:12:48;94760.44;;;17.33;38.33
42705;BME280;28342;42.594;23.414;2024-03-17T11:15:35;94749.94;;;17.28;38.78
42705;BME280;28342;42.594;23.414;2024-03-17T11:20:37;94744.94;;;17.26;38.80
42705;BME280;28342;42.594;23.414;2024-03-17T11:23:03;94741.84;;;17.40;38.90
42705;BME280;28342;42.594;23.414;2024-03-17T11:27:59;94728.38;;;17.52;36.97
42705;BME280;28342;42.594;23.414;2024-03-17T11:38:59;94724.03;;;17.48;37.94
42705;BME280;28342;42.594;23.414;2024-03-17T11:47:04;94731.50;;;17.11;36.69
42705;BME280;28342;42.594;23.414;2024-03-17T11:49:40;94720.63;;;17.19;38.85
42705;BME280;28342;42.594;23.414;2024-03-17T11:54:36;94713.91;;;17.41;40.48
42705;BME280;28342;42.594;23.414;2024-03-17T11:59:33;94722.38;;;17.43;39.77
42705;BME280;28342;42.594;23.414;2024-03-17T12:01:59;94703.19;;;17.41;39.24
42705;BME280;28342;42.594;23.414;2024-03-17T12:04:25;94711.66;;;17.43;39.84
42705;BME280;28342;42.594;23.414;2024-03-17T12:06:52;94718.91;;;17.27;40.76
42705;BME280;28342;42.594;23.414;2024-03-17T12:09:28;94718.41;;;17.37;43.31
42705;BME280;28342;42.594;23.414;2024-03-17T12:12:02;94708.94;;;17.12;41.27
42705;BME280;28342;42.594;23.414;2024-03-17T12:14:29;94715.28;;;17.19;42.73
42705;BME280;28342;42.594;23.414;2024-03-17T12:16:56;94722.53;;;17.19;42.71
42705;BME280;28342;42.594;23.414;2024-03-17T12:19:23;94704.31;;;17.40;41.78
42705;BME280;28342;42.594;23.414;2024-03-17T12:21:53;94696.25;;;17.40;39.31
42705;BME280;28342;42.594;23.414;2024-03-17T12:24:20;94695.75;;;17.50;40.20
42705;BME280;28342;42.594;23.414;2024-03-17T12:26:50;94703.09;;;17.53;38.78
42705;BME280;28342;42.594;23.414;2024-03-17T12:31:59;94691.19;;;17.07;40.78
42705;BME280;28342;42.594;23.414;2024-03-17T12:34:27;94691.66;;;17.25;39.15
42705;BME280;28342;42.594;23.414;2024-03-17T12:36:55;94683.69;;;17.13;40.32
42705;BME280;28342;42.594;23.414;2024-03-17T12:39:28;94686.00;;;17.14;40.02
42705;BME280;28342;42.594;23.414;2024-03-17T12:42:23;94696.66;;;17.26;39.35
42705;BME280;28342;42.594;23.414;2024-03-17T12:44:58;94695.97;;;17.29;39.31
42705;BME280;28342;42.594;23.414;2024-03-17T12:47:26;94679.69;;;17.07;39.59
42705;BME280;28342;42.594;23.414;2024-03-17T12:49:55;94703.97;;;16.98;41.00
42705;BME280;28342;42.594;23.414;2024-03-17T12:55:02;94706.22;;;16.96;40.13
42705;BME280;28342;42.594;23.414;2024-03-17T12:57:51;94702.56;;;16.88;41.38
42705;BME280;28342;42.594;23.414;2024-03-17T13:00:35;94691.91;;;16.76;41.51
42705;BME280;28342;42.594;23.414;2024-03-17T13:03:02;94687.22;;;16.73;41.84
42705;BME280;28342;42.594;23.414;2024-03-17T13:05:28;94697.16;;;16.72;43.55
42705;BME280;28342;42.594;23.414;2024-03-17T13:07:54;94696.66;;;16.55;42.79
42705;BME280;28342;42.594;23.414;2024-03-17T13:10:24;94685.75;;;16.35;44.50
42705;BME280;28342;42.594;23.414;2024-03-17T13:13:03;94686.00;;;16.30;45.28
42705;BME280;28342;42.594;23.414;2024-03-17T13:15:32;94675.75;;;16.20;44.89
42705;BME280;28342;42.594;23.414;2024-03-17T13:18:00;94684.41;;;16.41;43.64
42705;BME280;28342;42.594;23.414;2024-03-17T13:20:26;94675.31;;;16.18;45.30
42705;BME280;28342;42.594;23.414;2024-03-17T13:22:52;94686.66;;;16.27;46.98
42705;BME280;28342;42.594;23.414;2024-03-17T13:25:19;94677.97;;;16.18;48.00
42705;BME280;28342;42.594;23.414;2024-03-17T13:27:50;94694.22;;;16.37;46.98
42705;BME280;28342;42.594;23.414;2024-03-17T13:30:17;94683.06;;;16.35;47.63
42705;BME280;28342;42.594;23.414;2024-03-17T13:32:43;94698.94;;;16.28;45.90